2010 SEN 1 M Trophy 1 01:12:26 00:00:00 00:00:00 00:00:00 0:00:00 0:00:00 0:00:00 0:00:00 Errechnung Hagen 2-Stunden Rennen Errechnung Saalhausen 2-Stunden Rennen
Nutrixxion Marathon-Trophy 2010
Pos. Name  Vorname Team / Sponsor Zeit 1 #1 Zeit 2 #2 Zeit 3 #3 Zeit 4 #4 Zeit 5 #5 Zeit 6 #6 Zeit 7 #7 Zeit 8 #8 Cup Zeit Runden Durchschnittsrundenzeit Effektivzeit Zeit Runden Durchschnittsrundenzeit Effektivzeit
1 Lindemann Lars  Bike-Team Baumberge 1:12:26 1000   0   0   0   0   0   0   0   1000   1 24:00:00 120:00:00   1 24:00:00 120:00:00
2 Moryson Sascha  TEAM NUTRIXXION 1:13:42 982   0   0   0   0   0   0   0   982   1 24:00:00 120:00:00   1 24:00:00 120:00:00
3 Pohl Matthias  TEAM NUTRIXXION 1:13:42 982   0   0   0   0   0   0   0   982   1 24:00:00 120:00:00   1 24:00:00 120:00:00
4 Schmidt Carsten  MTBvD   A-Team 1:14:39 970   0   0   0   0   0   0   0   970   1 24:00:00 120:00:00   1 24:00:00 120:00:00
5 Steinweger Mark  TEAM NUTRIXXION 1:14:58 966   0   0   0   0   0   0   0   966   1 24:00:00 120:00:00   1 24:00:00 120:00:00
6 Kulla Norbert    1:16:00 953   0   0   0   0   0   0   0   953   1 24:00:00 120:00:00   1 24:00:00 120:00:00
7 Wolf Christian  Flachlandexpress 1:16:30 946   0   0   0   0   0   0   0 946   1 24:00:00 120:00:00   1 24:00:00 120:00:00
8 Schmunk Eugen  Bike-Team Baumberge 1:16:33 946   0   0   0   0   0   0   0 946   1 24:00:00 120:00:00   1 24:00:00 120:00:00
9 Schulte Frank  Team Burn Baby 1:18:14 925   0   0   0   0   0   0   0 925   1 24:00:00 120:00:00   1 24:00:00 120:00:00
10 Männchen Sten    1:18:42 920   0   0   0   0   0   0   0 920   1 24:00:00 120:00:00   1 24:00:00 120:00:00
11 Fugmann Helge  Bike-Team Baumberge 1:18:56 917   0   0   0   0   0   0   0 917   1 24:00:00 120:00:00   1 24:00:00 120:00:00
12 Lopez Pedro  RCC Düren-Merken 1:18:57 917   0   0   0   0   0   0   0 917   1 24:00:00 120:00:00   1 24:00:00 120:00:00
13 Fehmer Michael  Bike-Team Baumberge 1:18:59 917   0   0   0   0   0   0   0 917   1 24:00:00 120:00:00   1 24:00:00 120:00:00
14 Anders Timo  MTB RheinBerg 1:19:06 915   0   0   0   0   0   0   0 915   1 24:00:00 120:00:00   1 24:00:00 120:00:00
15 Drees Daniel  Shark Attack Saalhausen 1:21:44 886   0   0   0   0   0   0   0 886   1 24:00:00 120:00:00   1 24:00:00 120:00:00
16 Buchmann Richard  SC Hagen-Wildewiese 1:22:11 881   0   0   0   0   0   0   0 881   1 24:00:00 120:00:00   1 24:00:00 120:00:00
17 Reppel Ingo  bike-sports 1:22:19 879   0   0   0   0   0   0   0   879   1 24:00:00 120:00:00   1 24:00:00 120:00:00
18 Wischnewski Jens    1:22:52 874   0   0   0   0   0   0   0 874   1 24:00:00 120:00:00   1 24:00:00 120:00:00
19 Schmetz Walter  Bike-Team Baumberge 1:23:03 872   0   0   0   0   0   0   0 872   1 24:00:00 120:00:00   1 24:00:00 120:00:00
20 Schäfer Lars  Hühmänner Mtb Fahrer 1:23:13 870   0   0   0   0   0   0   0   870   1 24:00:00 120:00:00   1 24:00:00 120:00:00
21 Szybalski Hendrik  Wir machen´s nur für Kohle... 1:23:20 869   0   0   0   0   0   0   0 869   1 24:00:00 120:00:00   1 24:00:00 120:00:00
22 Hübner Patrick  DJK Herdorf 1:23:29 867   0   0   0   0   0   0   0 867   1 24:00:00 120:00:00   1 24:00:00 120:00:00
23 Wolter Sven  Team Trailjunkz 1:24:31 857   0   0   0   0   0   0   0   857   1 24:00:00 120:00:00   1 24:00:00 120:00:00
24 Schuricht Sebastian  TuS Antfeld 1:25:18 849   0   0   0   0   0   0   0 849   1 24:00:00 120:00:00   1 24:00:00 120:00:00
25 Peters Dirk  TUS 1896 Oeventrop 1:25:53 843   0   0   0   0   0   0   0 843   1 24:00:00 120:00:00   1 24:00:00 120:00:00
26 Martin Sascha    1:27:02 832   0   0   0   0   0   0   0   832   1 24:00:00 120:00:00   1 24:00:00 120:00:00
27 Börner Sven    1:28:04 822   0   0   0   0   0   0   0 822   1 24:00:00 120:00:00   1 24:00:00 120:00:00
28 Nies Jörg  team POWDER COWBOYS 1:28:06 822   0   0   0   0   0   0   0 822   1 24:00:00 120:00:00   1 24:00:00 120:00:00
29 Laborge Andreas  MTBvD 1:28:24 819   0   0   0   0   0   0   0   819   1 24:00:00 120:00:00   1 24:00:00 120:00:00
30 Blum Markus  Team Trailjunkz 1:28:33 817   0   0   0   0   0   0   0 817   1 24:00:00 120:00:00   1 24:00:00 120:00:00
31 Freund Thomas  Apocalypse Dudes Bike Team 1:29:26 809   0   0   0   0   0   0   0 809   1 24:00:00 120:00:00   1 24:00:00 120:00:00
32 Mazur Michael    1:29:28 809   0   0   0   0   0   0   0   809   1 24:00:00 120:00:00   1 24:00:00 120:00:00
33 Gummelt Matthias  Bike-Team Baumberge 1:29:57 805   0   0   0   0   0   0   0 805   1 24:00:00 120:00:00   1 24:00:00 120:00:00
34 Berting Dirk    1:30:01 804   0   0   0   0   0   0   0 804   1 24:00:00 120:00:00   1 24:00:00 120:00:00
35 Duda Oliver    1:30:54 796   0   0   0   0   0   0   0   796   1 24:00:00 120:00:00   1 24:00:00 120:00:00
36 Aufmkolk Holger  Team Powder Cowboys 1:32:16 785   0   0   0   0   0   0   0 785   1 24:00:00 120:00:00   1 24:00:00 120:00:00
37 Kunkel Thorsten  Ski Club Siedlinghausen 1:32:47 780   0   0   0   0   0   0   0 780   1 24:00:00 120:00:00   1 24:00:00 120:00:00
38 Wengeler Jens Dr.  Night Light Bike 1:33:02 778   0   0   0   0   0   0   0   778   1 24:00:00 120:00:00   1 24:00:00 120:00:00
39 Körner Timo  Weissbierbiker 1:33:11 777   0   0   0   0   0   0   0 777   1 24:00:00 120:00:00   1 24:00:00 120:00:00
40 Heimes Christian  Bergbeiser 1:33:17 776   0   0   0   0   0   0   0 776   1 24:00:00 120:00:00   1 24:00:00 120:00:00
41 Haselhorst Martin    1:34:24 767   0   0   0   0   0   0   0   767   1 24:00:00 120:00:00   1 24:00:00 120:00:00
42 Kordes Sven    1:34:27 766   0   0   0   0   0   0   0 766   1 24:00:00 120:00:00   1 24:00:00 120:00:00
43 Heuser Torsten    1:34:36 765   0   0   0   0   0   0   0 765   1 24:00:00 120:00:00   1 24:00:00 120:00:00
44 Schuhen Markus  DJK Herdorf 1:34:40 765   0   0   0   0   0   0   0   765   1 24:00:00 120:00:00   1 24:00:00 120:00:00
45 Maliga Markus  Zee-Aylienz e.V. - MTB Hagen 1:34:47 764   0   0   0   0   0   0   0 764   1 24:00:00 120:00:00   1 24:00:00 120:00:00
46 Sterenborg Dirk  RC Victoria Neheim 1:35:22 759   0   0   0   0   0   0   0 759   1 24:00:00 120:00:00   1 24:00:00 120:00:00
47 Stelkens Sascha  Team Starbikewear 1:35:35 757   0   0   0   0   0   0   0   757   1 24:00:00 120:00:00   1 24:00:00 120:00:00
48 Merschmeier Stefan  De Joekels 1:35:49 755   0   0   0   0   0   0   0 755   1 24:00:00 120:00:00   1 24:00:00 120:00:00
49 Schmiz Phillipp  Krosse Krabbe 1:37:37 742   0   0   0   0   0   0   0 742   1 24:00:00 120:00:00   1 24:00:00 120:00:00
50 Gockel Bastian    1:38:48 733   0   0   0   0   0   0   0   733   1 24:00:00 120:00:00   1 24:00:00 120:00:00
51 Witteler Kai  Bike-Team Baumberge 1:38:48 733   0   0   0   0   0   0   0 733   1 24:00:00 120:00:00   1 24:00:00 120:00:00
52 Schmidt Christian    1:38:49 733   0   0   0   0   0   0   0 733   1 24:00:00 120:00:00   1 24:00:00 120:00:00
53 Ventimiglia Alessandro  Bergbeisser 1:38:52 732   0   0   0   0   0   0   0   732   1 24:00:00 120:00:00   1 24:00:00 120:00:00
54 Leifert Bernd  Klaukschuiters Körbecke 1:39:14 729   0   0   0   0   0   0   0 729   1 24:00:00 120:00:00   1 24:00:00 120:00:00
55 Zöllig Peter  Radsport Tus Neuenrade 1:39:28 728   0   0   0   0   0   0   0 728   1 24:00:00 120:00:00   1 24:00:00 120:00:00
56 Ketz Thorsten  MTBvD 1:40:11 723   0   0   0   0   0   0   0   723   1 24:00:00 120:00:00   1 24:00:00 120:00:00
57 Böhnisch Oliver  Team rfks Plettenberg 1:40:17 722   0   0   0   0   0   0   0 722   1 24:00:00 120:00:00   1 24:00:00 120:00:00
58 Kirsch Ralph  P-Racer 1:40:53 717   0   0   0   0   0   0   0 717   1 24:00:00 120:00:00   1 24:00:00 120:00:00
59 Köhler Ulf  RSC Tretlager Wetter e.V. 1:40:53 717   0   0   0   0   0   0   0   717   1 24:00:00 120:00:00   1 24:00:00 120:00:00
60 Schmidt Christian    1:41:08 716   0   0   0   0   0   0   0 716   1 24:00:00 120:00:00   1 24:00:00 120:00:00
61 Six Sebastian  TEAM BEINHART 1:41:42 712   0   0   0   0   0   0   0 712   1 24:00:00 120:00:00   1 24:00:00 120:00:00
62 Detemple Theys  99ers racingTeam 1:43:16 701   0   0   0   0   0   0   0   701   1 24:00:00 120:00:00   1 24:00:00 120:00:00
63 Wolzenburg Carsten  iRocker-Spartak Forkenschrater 1:43:21 700   0   0   0   0   0   0   0 700   1 24:00:00 120:00:00   1 24:00:00 120:00:00
64 Rodzoch Uwe  Focus Team 2 Rad Meyer 1:43:21 700   0   0   0   0   0   0   0 700   1 24:00:00 120:00:00   1 24:00:00 120:00:00
65 Hanses Christian  TV Rönkhausen 1:43:45 698   0   0   0   0   0   0   0   698   1 24:00:00 120:00:00   1 24:00:00 120:00:00
66 Treder Klaus Alexander  De Joekels 1:45:14 688   0   0   0   0   0   0   0 688   1 24:00:00 120:00:00   1 24:00:00 120:00:00
67 Poljsak Niki  2radkollektiv 1:45:34 686   0   0   0   0   0   0   0 686   1 24:00:00 120:00:00   1 24:00:00 120:00:00
68 Ashauer Marc  2radkollektiv 1:45:35 686   0   0   0   0   0   0   0   686   1 24:00:00 120:00:00   1 24:00:00 120:00:00
69 Kirchner Mike    1:45:52 684   0   0   0   0   0   0   0 684   1 24:00:00 120:00:00   1 24:00:00 120:00:00
70 Peters Christian  Apocalypse Dudes Bike Team 1:47:23 674   0   0   0   0   0   0   0 674   1 24:00:00 120:00:00   1 24:00:00 120:00:00
71 Bergmann Christof  Elisental Aluminium Drahtesel 1:47:53 671   0   0   0   0   0   0   0   671   1 24:00:00 120:00:00   1 24:00:00 120:00:00
72 Spitthoff Björn  team POWDER COWBOYS 1:48:18 668   0   0   0   0   0   0   0 668   1 24:00:00 120:00:00   1 24:00:00 120:00:00
73 Weber Claus    1:49:34 661   0   0   0   0   0   0   0 661   1 24:00:00 120:00:00   1 24:00:00 120:00:00
74 Weber Patrick    1:49:34 661   0   0   0   0   0   0   0   661   1 24:00:00 120:00:00   1 24:00:00 120:00:00
75 Munder-Albers Sven  HBS 1:50:43 654   0   0   0   0   0   0   0 654   1 24:00:00 120:00:00   1 24:00:00 120:00:00
76 Kaminski Dean    1:51:29 649   0   0   0   0   0   0   0 649   1 24:00:00 120:00:00   1 24:00:00 120:00:00
77 Castrignano Angelo    1:51:51 647   0   0   0   0   0   0   0   647   1 24:00:00 120:00:00   1 24:00:00 120:00:00
78 Maaß Jan-Christoph    1:51:56 647   0   0   0   0   0   0   0 647   1 24:00:00 120:00:00   1 24:00:00 120:00:00
79 Perk Lars  De Joekels 1:52:13 645   0   0   0   0   0   0   0 645   1 24:00:00 120:00:00   1 24:00:00 120:00:00
80 Roth Marcus  BF Bielefeld 1:53:54 635   0   0   0   0   0   0   0   635   1 24:00:00 120:00:00   1 24:00:00 120:00:00
81 Hauch Marco  Kona Bongo Bongo 1:54:27 632   0   0   0   0   0   0   0 632   1 24:00:00 120:00:00   1 24:00:00 120:00:00
82 Wurm Andre  Team Dreco 1:54:30 632   0   0   0   0   0   0   0 632   1 24:00:00 120:00:00   1 24:00:00 120:00:00
83 Czygowski Tobias    1:55:06 629   0   0   0   0   0   0   0   629   1 24:00:00 120:00:00   1 24:00:00 120:00:00
84 Hofius Guido  Wild Hogs 1:55:33 626   0   0   0   0   0   0   0 626   1 24:00:00 120:00:00   1 24:00:00 120:00:00
85 Pfeifer Simon  Skiklub Oestertal 1:55:37 626   0   0   0   0   0   0   0 626   1 24:00:00 120:00:00   1 24:00:00 120:00:00
86 Kalfhaus Uwe  Kette links 1:55:43 625   0   0   0   0   0   0   0   625   1 24:00:00 120:00:00   1 24:00:00 120:00:00
87 Schumann Dirk    1:56:04 624   0   0   0   0   0   0   0 624   1 24:00:00 120:00:00   1 24:00:00 120:00:00
88 Bartsch Matthias  BF Bielefeld 1:56:39 620   0   0   0   0   0   0   0 620   1 24:00:00 120:00:00   1 24:00:00 120:00:00
89 Hüttemeister Frank  Team Rischen 1:57:58 614   0   0   0   0   0   0   0   614   1 24:00:00 120:00:00   1 24:00:00 120:00:00
90 König Tobias  TC Cobbenrode 1:59:00 608   0   0   0   0   0   0   0 608   1 24:00:00 120:00:00   1 24:00:00 120:00:00
91 Thelen Philipp  99ers racingTeam 1:59:09 607   0   0   0   0   0   0   0 607   1 24:00:00 120:00:00   1 24:00:00 120:00:00
92 Scheffer Ulrik    1:59:17 607   0   0   0   0   0   0   0   607   1 24:00:00 120:00:00   1 24:00:00 120:00:00
93 Kolarec Daniel  Hügelstürmer 2:02:11 592   0   0   0   0   0   0   0 592   1 24:00:00 120:00:00   1 24:00:00 120:00:00
94 Kasel Sascha  Teutonen 2:02:28 591   0   0   0   0   0   0   0 591   1 24:00:00 120:00:00   1 24:00:00 120:00:00
95 Matynia Adrian    2:02:33 591   0   0   0   0   0   0   0   591   1 24:00:00 120:00:00   1 24:00:00 120:00:00
96 Klöcker Florian  Apocalypse Dudes Bike Team 2:02:51 589   0   0   0   0   0   0   0 589   1 24:00:00 120:00:00   1 24:00:00 120:00:00
97 Zimmermann Michael  TuS Antfeld 2:04:22 582   0   0   0   0   0   0   0 582   1 24:00:00 120:00:00   1 24:00:00 120:00:00
98 Lüno Lucas    2:05:04 579   0   0   0   0   0   0   0   579   1 24:00:00 120:00:00   1 24:00:00 120:00:00
99 Lohmann Jens    2:05:07 578   0   0   0   0   0   0   0 578   1 24:00:00 120:00:00   1 24:00:00 120:00:00
100 Dämmer Jan    2:05:29 577   0   0   0   0   0   0   0 577   1 24:00:00 120:00:00   1 24:00:00 120:00:00
101         0   0   0   0   0   0   0   0   0   1 24:00:00 120:00:00   1 24:00:00 120:00:00
102 Strombach Alexander  Team Strombach 2:08:01 565   0   0   0   0   0   0   0 565   1 24:00:00 120:00:00   1 24:00:00 120:00:00
103 Simon Guido  De Joekels 2:10:10 556   0   0   0   0   0   0   0 556   1 24:00:00 120:00:00   1 24:00:00 120:00:00
104 Hochstein Martin  Kona Bongo Bongo 2:15:29 534   0   0   0   0   0   0   0   534   1 24:00:00 120:00:00   1 24:00:00 120:00:00
105 Friedrich Carsten  Team Ruhrpott Express 2:16:00 532   0   0   0   0   0   0   0 532   1 24:00:00 120:00:00   1 24:00:00 120:00:00
106 Lemmer Armin    2:16:10 531   0   0   0   0   0   0   0 531   1 24:00:00 120:00:00   1 24:00:00 120:00:00
107 Niggemann Thorsten  Elisental Aluminium Drahtesel 2:17:26 527   0   0   0   0   0   0   0   527   1 24:00:00 120:00:00   1 24:00:00 120:00:00
108 Hennemann Matthias    2:20:20 516   0   0   0   0   0   0   0 516   1 24:00:00 120:00:00   1 24:00:00 120:00:00
109 Hahn Christian  Kette links 2:20:22 516   0   0   0   0   0   0   0 516   1 24:00:00 120:00:00   1 24:00:00 120:00:00
110 Grenoble Claudio    2:22:29 508   0   0   0   0   0   0   0   508   1 24:00:00 120:00:00   1 24:00:00 120:00:00
111 Knöbel Matthias  Elisental Aluminium Drahtesel 2:26:45 493   0   0   0   0   0   0   0 493   1 24:00:00 120:00:00   1 24:00:00 120:00:00
112 Hunger Stephan  Turbo-Schnecken Lüdenscheid 2:27:52 489   0   0   0   0   0   0   0 489   1 24:00:00 120:00:00   1 24:00:00 120:00:00
113 Pawlofsky Karsten    2:28:49 486   0   0   0   0   0   0   0   486   1 24:00:00 120:00:00   1 24:00:00 120:00:00
114 Klaholz-Wierzewski Matthias    2:29:39 484   0   0   0   0   0   0   0 484   1 24:00:00 120:00:00   1 24:00:00 120:00:00
115 Harhoff Elmar    2:30:40 480   0   0   0   0   0   0   0 480   1 24:00:00 120:00:00   1 24:00:00 120:00:00
116 Kunen Jens    2:36:31 462   0   0   0   0   0   0   0   462   1 24:00:00 120:00:00   1 24:00:00 120:00:00
117 Klauke Michael    2:37:28 459   0   0   0   0   0   0   0 459   1 24:00:00 120:00:00   1 24:00:00 120:00:00
118 Jindra Thomas    3:02:46 396   0   0   0   0   0   0   0 396   1 24:00:00 120:00:00   1 24:00:00 120:00:00
119         0   0   0   0   0   0   0   0   0   1 24:00:00 120:00:00   1 24:00:00 120:00:00
120         0   0   0   0   0   0   0   0 0   1 24:00:00 120:00:00   1 24:00:00 120:00:00
121         0   0   0   0   0   0   0   0 0   1 24:00:00 120:00:00   1 24:00:00 120:00:00
122         0   0   0   0   0   0   0   0   0   1 24:00:00 120:00:00   1 24:00:00 120:00:00
123         0   0   0   0   0   0   0   0 0   1 24:00:00 120:00:00   1 24:00:00 120:00:00
124         0   0   0   0   0   0   0   0 0   1 24:00:00 120:00:00   1 24:00:00 120:00:00
125         0   0   0   0   0   0   0   0   0   1 24:00:00 120:00:00   1 24:00:00 120:00:00
126         0   0   0   0   0   0   0   0 0   1 24:00:00 120:00:00   1 24:00:00 120:00:00
127         0   0   0   0   0   0   0   0 0   1 24:00:00 120:00:00   1 24:00:00 120:00:00
128         0   0   0   0   0   0   0   0   0   1 24:00:00 120:00:00   1 24:00:00 120:00:00
129         0   0   0   0   0   0   0   0 0   1 24:00:00 120:00:00   1 24:00:00 120:00:00
130         0   0   0   0   0   0   0   0 0   1 24:00:00 120:00:00   1 24:00:00 120:00:00
131         0   0   0   0   0   0   0   0   0   1 24:00:00 120:00:00   1 24:00:00 120:00:00
132         0   0   0   0   0   0   0   0 0   1 24:00:00 120:00:00   1 24:00:00 120:00:00
133         0   0   0   0   0   0   0   0 0   1 24:00:00 120:00:00   1 24:00:00 120:00:00
134         0   0   0   0   0   0   0   0   0   1 24:00:00 120:00:00   1 24:00:00 120:00:00
135         0   0   0   0   0   0   0   0 0   1 24:00:00 120:00:00   1 24:00:00 120:00:00
136         0   0   0   0   0   0   0   0 0   1 24:00:00 120:00:00   1 24:00:00 120:00:00